Time,TemperatureF,DewpointF,PressureIn,WindDirection,WindDirectionDegrees,WindSpeedMPH,WindSpeedGustMPH,Humidity,HourlyPrecipIn,Conditions,Clouds,dailyrainin,SoftwareType,DateUTC
2013-09-08 00:04:00,58.9,55.0,29.81,WSW,238,0.0,0.0,87,0.00,,,0.01,weatherlink.com 1.10,2013-09-08 04:04:00,
2013-09-08 00:20:00,59.1,56.0,29.81,WSW,238,0.0,1.0,89,0.00,,,0.01,weatherlink.com 1.10,2013-09-08 04:20:00,
2013-09-08 00:35:00,59.1,56.0,29.81,SW,232,0.0,1.0,89,0.00,,,0.01,weatherlink.com 1.10,2013-09-08 04:35:00,
2013-09-08 00:50:00,59.1,55.0,29.81,SW,232,0.0,0.0,86,0.00,,,0.01,weatherlink.com 1.10,2013-09-08 04:50:00,
2013-09-08 01:04:00,59.4,55.0,29.80,SW,233,0.0,0.0,85,0.00,,,0.01,weatherlink.com 1.10,2013-09-08 05:04:00,
2013-09-08 01:19:00,59.6,56.0,29.80,SW,232,0.0,0.0,87,0.00,,,0.01,weatherlink.com 1.10,2013-09-08 05:19:00,
2013-09-08 01:35:00,59.2,55.0,29.79,SW,232,0.0,1.0,86,0.00,,,0.01,weatherlink.com 1.10,2013-09-08 05:35:00,
2013-09-08 01:50:00,58.8,55.0,29.79,SW,232,0.0,0.0,87,0.00,,,0.01,weatherlink.com 1.10,2013-09-08 05:50:00,
2013-09-08 02:05:00,58.3,55.0,29.78,SW,232,0.0,0.0,87,0.00,,,0.01,weatherlink.com 1.10,2013-09-08 06:05:00,
2013-09-08 02:20:00,58.2,55.0,29.78,SW,232,0.0,0.0,89,0.00,,,0.01,weatherlink.com 1.10,2013-09-08 06:20:00,
2013-09-08 02:35:00,58.0,55.0,29.78,SW,232,0.0,0.0,90,0.00,,,0.01,weatherlink.com 1.10,2013-09-08 06:35:00,
2013-09-08 02:50:00,58.0,55.0,29.77,SW,232,0.0,1.0,90,0.00,,,0.01,weatherlink.com 1.10,2013-09-08 06:50:00,
2013-09-08 03:05:00,57.9,55.0,29.76,SW,232,0.0,0.0,89,0.00,,,0.01,weatherlink.com 1.10,2013-09-08 07:05:00,
2013-09-08 03:20:00,58.1,55.0,29.76,SW,232,0.0,0.0,89,0.00,,,0.01,weatherlink.com 1.10,2013-09-08 07:20:00,
2013-09-08 03:35:00,58.7,53.0,29.75,SW,232,0.0,1.0,82,0.00,,,0.01,weatherlink.com 1.10,2013-09-08 07:35:00,
2013-09-08 03:50:00,59.5,53.0,29.75,ESE,115,0.0,0.0,80,0.00,,,0.01,weatherlink.com 1.10,2013-09-08 07:50:00,
2013-09-08 04:05:00,59.8,53.0,29.75,ESE,116,0.0,1.0,77,0.00,,,0.01,weatherlink.com 1.10,2013-09-08 08:05:00,
2013-09-08 04:20:00,60.2,53.0,29.75,ESE,122,0.0,1.0,78,0.00,,,0.01,weatherlink.com 1.10,2013-09-08 08:20:00,
2013-09-08 04:35:00,60.1,53.0,29.75,ESE,122,0.0,1.0,78,0.00,,,0.01,weatherlink.com 1.10,2013-09-08 08:35:00,
2013-09-08 04:50:00,60.2,53.0,29.74,ESE,122,0.0,0.0,78,0.00,,,0.01,weatherlink.com 1.10,2013-09-08 08:50:00,
2013-09-08 05:05:00,60.0,54.0,29.73,ESE,121,0.0,0.0,80,0.00,,,0.01,weatherlink.com 1.10,2013-09-08 09:05:00,
2013-09-08 05:20:00,60.1,54.0,29.73,ESE,122,0.0,0.0,80,0.00,,,0.01,weatherlink.com 1.10,2013-09-08 09:20:00,
2013-09-08 05:35:00,59.6,55.0,29.73,SSE,148,0.0,1.0,84,0.00,,,0.01,weatherlink.com 1.10,2013-09-08 09:35:00,
2013-09-08 05:50:00,59.0,54.0,29.72,South,177,0.0,0.0,83,0.00,,,0.01,weatherlink.com 1.10,2013-09-08 09:50:00,
2013-09-08 06:05:00,59.7,53.0,29.72,South,177,0.0,0.0,79,0.00,,,0.01,weatherlink.com 1.10,2013-09-08 10:05:00,
2013-09-08 06:20:00,59.3,54.0,29.72,South,176,0.0,1.0,83,0.00,,,0.01,weatherlink.com 1.10,2013-09-08 10:20:00,
2013-09-08 06:35:00,58.6,54.0,29.74,South,176,0.0,0.0,85,0.00,,,0.01,weatherlink.com 1.10,2013-09-08 10:35:00,
2013-09-08 06:50:00,58.4,54.0,29.74,South,177,0.0,0.0,86,0.00,,,0.01,weatherlink.com 1.10,2013-09-08 10:50:00,
2013-09-08 07:05:00,59.2,54.0,29.73,South,177,0.0,0.0,83,0.00,,,0.01,weatherlink.com 1.10,2013-09-08 11:05:00,
2013-09-08 07:20:00,59.1,55.0,29.73,South,177,0.0,1.0,85,0.00,,,0.01,weatherlink.com 1.10,2013-09-08 11:20:00,
2013-09-08 07:35:00,58.9,55.0,29.73,South,178,0.0,0.0,88,0.00,,,0.01,weatherlink.com 1.10,2013-09-08 11:35:00,
2013-09-08 07:50:00,59.3,54.0,29.73,South,177,0.0,1.0,82,0.00,,,0.01,weatherlink.com 1.10,2013-09-08 11:50:00,
2013-09-08 08:05:00,59.5,54.0,29.72,South,178,0.0,0.0,82,0.00,,,0.01,weatherlink.com 1.10,2013-09-08 12:05:00,
2013-09-08 08:20:00,60.0,55.0,29.72,South,170,0.0,1.0,84,0.00,,,0.01,weatherlink.com 1.10,2013-09-08 12:20:00,
2013-09-08 08:35:00,60.5,56.0,29.72,South,172,0.0,1.0,84,0.00,,,0.01,weatherlink.com 1.10,2013-09-08 12:35:00,
2013-09-08 08:50:00,61.8,56.0,29.73,West,278,0.0,1.0,82,0.00,,,0.01,weatherlink.com 1.10,2013-09-08 12:50:00,
2013-09-08 09:05:00,62.8,57.0,29.73,West,277,0.0,1.0,82,0.00,,,0.01,weatherlink.com 1.10,2013-09-08 13:05:00,
2013-09-08 09:20:00,64.0,58.0,29.73,NW,315,1.0,2.0,81,0.00,,,0.01,weatherlink.com 1.10,2013-09-08 13:20:00,
2013-09-08 09:35:00,64.0,58.0,29.73,West,277,0.0,2.0,80,0.00,,,0.01,weatherlink.com 1.10,2013-09-08 13:35:00,
2013-09-08 09:50:00,64.1,58.0,29.73,ENE,62,1.0,1.0,81,0.00,,,0.01,weatherlink.com 1.10,2013-09-08 13:50:00,
2013-09-08 10:05:00,63.1,58.0,29.74,NW,316,1.0,2.0,83,0.00,,,0.01,weatherlink.com 1.10,2013-09-08 14:05:00,
2013-09-08 10:21:00,62.5,58.0,29.75,NNW,330,2.0,4.0,84,0.00,,,0.01,weatherlink.com 1.10,2013-09-08 14:21:00,
2013-09-08 10:35:00,62.4,58.0,29.75,NW,315,1.0,2.0,84,0.00,,,0.01,weatherlink.com 1.10,2013-09-08 14:35:00,
2013-09-08 10:50:00,62.3,55.0,29.76,WSW,253,1.0,4.0,78,0.00,,,0.01,weatherlink.com 1.10,2013-09-08 14:50:00,
2013-09-08 11:05:00,61.4,55.0,29.77,NW,323,2.0,4.0,78,0.00,,,0.01,weatherlink.com 1.10,2013-09-08 15:05:00,
2013-09-08 11:20:00,60.9,54.0,29.77,NNE,23,1.0,2.0,79,0.00,,,0.01,weatherlink.com 1.10,2013-09-08 15:20:00,
2013-09-08 11:35:00,62.0,54.0,29.77,NNW,332,0.0,3.0,74,0.00,,,0.01,weatherlink.com 1.10,2013-09-08 15:35:00,
2013-09-08 11:50:00,63.0,52.0,29.77,WNW,300,2.0,5.0,68,0.00,,,0.01,weatherlink.com 1.10,2013-09-08 15:50:00,
2013-09-08 12:05:00,64.4,52.0,29.77,NW,313,1.0,6.0,64,0.00,,,0.01,weatherlink.com 1.10,2013-09-08 16:05:00,
2013-09-08 12:20:00,64.1,52.0,29.78,North,359,2.0,3.0,64,0.00,,,0.01,weatherlink.com 1.10,2013-09-08 16:20:00,
2013-09-08 12:35:00,64.9,50.0,29.78,WNW,287,1.0,5.0,58,0.00,,,0.01,weatherlink.com 1.10,2013-09-08 16:35:00,
2013-09-08 12:50:00,64.1,51.0,29.78,SSW,212,1.0,4.0,63,0.00,,,0.01,weatherlink.com 1.10,2013-09-08 16:50:00,
2013-09-08 13:05:00,64.3,49.0,29.79,East,87,0.0,5.0,57,0.00,,,0.01,weatherlink.com 1.10,2013-09-08 17:05:00,
2013-09-08 13:20:00,64.9,48.0,29.79,NNE,18,2.0,5.0,54,0.00,,,0.01,weatherlink.com 1.10,2013-09-08 17:20:00,
2013-09-08 13:35:00,64.2,46.0,29.80,NNE,16,2.0,7.0,52,0.00,,,0.01,weatherlink.com 1.10,2013-09-08 17:35:00,
2013-09-08 13:50:00,64.1,48.0,29.81,WNW,283,1.0,6.0,56,0.00,,,0.01,weatherlink.com 1.10,2013-09-08 17:50:00,
2013-09-08 14:05:00,63.2,47.0,29.82,NW,322,1.0,6.0,56,0.00,,,0.01,weatherlink.com 1.10,2013-09-08 18:05:00,
2013-09-08 14:20:00,62.2,45.0,29.83,North,8,1.0,4.0,53,0.00,,,0.01,weatherlink.com 1.10,2013-09-08 18:20:00,
2013-09-08 14:35:00,61.8,44.0,29.84,East,94,2.0,5.0,53,0.00,,,0.01,weatherlink.com 1.10,2013-09-08 18:35:00,
2013-09-08 14:50:00,61.3,45.0,29.84,NW,326,2.0,4.0,55,0.00,,,0.01,weatherlink.com 1.10,2013-09-08 18:50:00,
2013-09-08 15:05:00,61.1,44.0,29.84,NW,304,3.0,6.0,54,0.00,,,0.01,weatherlink.com 1.10,2013-09-08 19:05:00,
2013-09-08 15:20:00,60.6,45.0,29.85,WNW,287,2.0,6.0,56,0.00,,,0.01,weatherlink.com 1.10,2013-09-08 19:20:00,
2013-09-08 15:35:00,60.5,44.0,29.85,NNE,30,1.0,6.0,54,0.00,,,0.01,weatherlink.com 1.10,2013-09-08 19:35:00,
2013-09-08 15:50:00,60.1,44.0,29.86,NE,50,2.0,6.0,56,0.00,,,0.01,weatherlink.com 1.10,2013-09-08 19:50:00,
2013-09-08 16:05:00,59.5,43.0,29.87,NE,44,1.0,5.0,54,0.00,,,0.01,weatherlink.com 1.10,2013-09-08 20:05:00,
2013-09-08 16:20:00,59.1,43.0,29.87,WNW,302,0.0,4.0,55,0.00,,,0.01,weatherlink.com 1.10,2013-09-08 20:20:00,
2013-09-08 16:35:00,58.8,42.0,29.88,North,351,1.0,5.0,54,0.00,,,0.01,weatherlink.com 1.10,2013-09-08 20:35:00,
2013-09-08 16:50:00,58.4,43.0,29.88,NNW,329,5.0,5.0,56,0.00,,,0.01,weatherlink.com 1.10,2013-09-08 20:50:00,
2013-09-08 17:06:00,58.3,42.0,29.89,NNE,30,2.0,3.0,55,0.00,,,0.01,weatherlink.com 1.10,2013-09-08 21:06:00,
2013-09-08 17:21:00,58.2,42.0,29.90,NNE,23,1.0,5.0,56,0.00,,,0.01,weatherlink.com 1.10,2013-09-08 21:21:00,
2013-09-08 17:36:00,57.8,42.0,29.90,NNE,23,1.0,3.0,55,0.00,,,0.01,weatherlink.com 1.10,2013-09-08 21:36:00,
2013-09-08 17:51:00,57.5,42.0,29.91,WNW,293,0.0,2.0,57,0.00,,,0.01,weatherlink.com 1.10,2013-09-08 21:51:00,
2013-09-08 18:06:00,57.2,42.0,29.91,NW,318,0.0,2.0,58,0.00,,,0.01,weatherlink.com 1.10,2013-09-08 22:06:00,
2013-09-08 18:21:00,56.8,43.0,29.92,South,183,1.0,2.0,60,0.00,,,0.01,weatherlink.com 1.10,2013-09-08 22:21:00,
2013-09-08 18:36:00,56.1,43.0,29.92,WNW,293,0.0,1.0,62,0.00,,,0.01,weatherlink.com 1.10,2013-09-08 22:36:00,
2013-09-08 18:51:00,55.4,43.0,29.93,WNW,302,0.0,1.0,64,0.00,,,0.01,weatherlink.com 1.10,2013-09-08 22:51:00,
2013-09-08 19:06:00,54.5,44.0,29.94,SW,231,1.0,1.0,67,0.00,,,0.00,weatherlink.com 1.10,2013-09-08 23:06:00,
2013-09-08 19:21:00,53.7,44.0,29.95,SW,226,0.0,1.0,70,0.00,,,0.00,weatherlink.com 1.10,2013-09-08 23:21:00,
2013-09-08 19:36:00,52.8,44.0,29.96,SW,228,0.0,1.0,71,0.00,,,0.00,weatherlink.com 1.10,2013-09-08 23:36:00,
2013-09-08 19:51:00,51.8,43.0,29.97,SW,228,0.0,1.0,72,0.00,,,0.00,weatherlink.com 1.10,2013-09-08 23:51:00,
2013-09-08 20:06:00,51.9,42.0,29.98,SW,228,0.0,1.0,70,0.00,,,0.00,weatherlink.com 1.10,2013-09-09 00:06:00,
2013-09-08 20:21:00,52.6,41.0,29.99,WNW,300,1.0,2.0,66,0.00,,,0.00,weatherlink.com 1.10,2013-09-09 00:21:00,
2013-09-08 20:36:00,52.5,42.0,30.00,WNW,300,0.0,1.0,67,0.00,,,0.00,weatherlink.com 1.10,2013-09-09 00:36:00,
2013-09-08 20:51:00,52.4,42.0,30.01,ESE,118,0.0,1.0,67,0.00,,,0.00,weatherlink.com 1.10,2013-09-09 00:51:00,
2013-09-08 21:06:00,51.6,42.0,30.01,ESE,119,0.0,1.0,69,0.00,,,0.00,weatherlink.com 1.10,2013-09-09 01:06:00,
2013-09-08 21:21:00,50.7,42.0,30.02,ESE,118,0.0,1.0,72,0.00,,,0.00,weatherlink.com 1.10,2013-09-09 01:21:00,
2013-09-08 21:36:00,50.0,43.0,30.03,SE,124,0.0,1.0,77,0.00,,,0.00,weatherlink.com 1.10,2013-09-09 01:36:00,
2013-09-08 21:51:00,49.1,43.0,30.03,SE,124,0.0,1.0,78,0.00,,,0.00,weatherlink.com 1.10,2013-09-09 01:51:00,
2013-09-08 22:06:00,49.1,42.0,30.04,SE,124,0.0,1.0,76,0.00,,,0.00,weatherlink.com 1.10,2013-09-09 02:06:00,
2013-09-08 22:22:00,49.4,42.0,30.04,SE,124,1.0,1.0,77,0.00,,,0.00,weatherlink.com 1.10,2013-09-09 02:22:00,
2013-09-08 22:37:00,49.4,41.0,30.05,NW,304,0.0,1.0,74,0.00,,,0.00,weatherlink.com 1.10,2013-09-09 02:37:00,
2013-09-08 22:52:00,48.9,43.0,30.05,NW,304,0.0,0.0,79,0.00,,,0.00,weatherlink.com 1.10,2013-09-09 02:52:00,
2013-09-08 23:07:00,47.8,43.0,30.05,NW,304,0.0,1.0,82,0.00,,,0.00,weatherlink.com 1.10,2013-09-09 03:07:00,
2013-09-08 23:22:00,47.5,42.0,30.05,NW,304,1.0,1.0,81,0.00,,,0.00,weatherlink.com 1.10,2013-09-09 03:22:00,
2013-09-08 23:37:00,48.6,42.0,30.05,NW,304,0.0,1.0,79,0.00,,,0.00,weatherlink.com 1.10,2013-09-09 03:37:00,
2013-09-08 23:52:00,47.7,43.0,30.06,WNW,302,0.0,1.0,83,0.00,,,0.00,weatherlink.com 1.10,2013-09-09 03:52:00,